EWG14WL LEPA-EDDG
Flight info
| Callsign | EWG14WL |
|---|---|
| Flight time | N/A |
| Altitude | 36000 |
| Route | MEROS N853 LUMAS DCT MAXIR DCT LUSOL DCT BODRU DCT OKTET DCT IRMAR DCT KINES DCT VANAS DCT MOBLO DCT UBIMA DCT GILIR DCT PENDU DCT IXILU DCT EPL DCT ROUSY DCT DIK/N0436F370 T856 DEPOK/N0375F230 T856 QATJA N853 HMM HMM1A |
| Aircraft | A320/M-SDE3FGHIRWY/LB1 |
Departure
| Time | 2026-05-01 12:53 |
|---|---|
| Airport | Palma de Mallorca Airport (LEPA) |
Arrival
| Time | N/A |
|---|---|
| Airport | Münster Osnabrück Airport (EDDG) |
| Time | Latitude | Longitude | Altitude | Speed | Heading |
|---|---|---|---|---|---|
| 2026-05-01 12:12 | 39.55051 | 2.73684 | 38 ft | 0 kts | 239° |
| 2026-05-01 12:43 | 39.55052 | 2.73686 | 38 ft | 2 kts | 239° |
| 2026-05-01 12:43 | 39.55066 | 2.73715 | 37 ft | 4 kts | 236° |
| 2026-05-01 12:43 | 39.55081 | 2.73744 | 38 ft | 4 kts | 231° |
| 2026-05-01 12:43 | 39.55099 | 2.73769 | 38 ft | 4 kts | 218° |
| 2026-05-01 12:44 | 39.55121 | 2.73783 | 34 ft | 4 kts | 169° |
| 2026-05-01 12:44 | 39.55131 | 2.73779 | 38 ft | 1 kts | 149° |
| 2026-05-01 12:44 | 39.55132 | 2.73778 | 38 ft | 0 kts | 149° |
| 2026-05-01 12:47 | 39.55131 | 2.73778 | 38 ft | 0 kts | 149° |
| 2026-05-01 12:47 | 39.55094 | 2.73807 | 36 ft | 13 kts | 149° |
| 2026-05-01 12:47 | 39.54990 | 2.73889 | 37 ft | 17 kts | 148° |
| 2026-05-01 12:47 | 39.54892 | 2.73965 | 38 ft | 14 kts | 148° |
| 2026-05-01 12:48 | 39.54833 | 2.73999 | 38 ft | 8 kts | 177° |
| 2026-05-01 12:48 | 39.54780 | 2.73945 | 38 ft | 11 kts | 198° |
| 2026-05-01 12:48 | 39.54718 | 2.73959 | 38 ft | 8 kts | 198° |
| 2026-05-01 12:48 | 39.54687 | 2.73909 | 38 ft | 7 kts | 234° |
| 2026-05-01 12:49 | 39.54665 | 2.73864 | 38 ft | 5 kts | 238° |
| 2026-05-01 12:49 | 39.54643 | 2.73818 | 36 ft | 9 kts | 239° |
| 2026-05-01 12:49 | 39.54593 | 2.73710 | 38 ft | 18 kts | 237° |
| 2026-05-01 12:49 | 39.54527 | 2.73573 | 36 ft | 17 kts | 238° |
| 2026-05-01 12:50 | 39.54470 | 2.73452 | 38 ft | 15 kts | 239° |
| 2026-05-01 12:50 | 39.54418 | 2.73343 | 38 ft | 13 kts | 238° |
| 2026-05-01 12:50 | 39.54369 | 2.73239 | 38 ft | 14 kts | 239° |
| 2026-05-01 12:50 | 39.54319 | 2.73161 | 38 ft | 10 kts | 202° |
| 2026-05-01 12:51 | 39.54274 | 2.73199 | 38 ft | 8 kts | 119° |
| 2026-05-01 12:51 | 39.54268 | 2.73282 | 38 ft | 11 kts | 89° |
| 2026-05-01 12:51 | 39.54275 | 2.73484 | 38 ft | 0 kts | 58° |
| 2026-05-01 12:52 | 39.54275 | 2.73485 | 38 ft | 1 kts | 58° |
| 2026-05-01 12:52 | 39.54627 | 2.74232 | 38 ft | 112 kts | 58° |
| 2026-05-01 12:52 | 39.55137 | 2.75306 | 75 ft | 158 kts | 59° |
| 2026-05-01 12:53 | 39.56251 | 2.77728 | 1312 ft | 163 kts | 61° |
| 2026-05-01 12:53 | 39.56869 | 2.79085 | 1631 ft | 187 kts | 61° |
| 2026-05-01 12:53 | 39.57564 | 2.80607 | 2134 ft | 201 kts | 61° |
| 2026-05-01 12:54 | 39.58295 | 2.82173 | 2805 ft | 205 kts | 60° |
| 2026-05-01 12:54 | 39.59805 | 2.85457 | 4195 ft | 216 kts | 61° |
| 2026-05-01 12:54 | 39.60575 | 2.87150 | 4948 ft | 219 kts | 62° |
| 2026-05-01 12:55 | 39.62137 | 2.90610 | 6346 ft | 226 kts | 61° |
| 2026-05-01 12:55 | 39.62941 | 2.92441 | 6715 ft | 244 kts | 63° |
| 2026-05-01 12:55 | 39.63808 | 2.94460 | 7036 ft | 267 kts | 62° |
| 2026-05-01 12:56 | 39.64732 | 2.96621 | 7630 ft | 278 kts | 63° |
| 2026-05-01 12:56 | 39.65684 | 2.98840 | 8333 ft | 285 kts | 62° |
| 2026-05-01 12:56 | 39.66659 | 3.01103 | 9066 ft | 290 kts | 61° |
| 2026-05-01 12:56 | 39.67318 | 3.02628 | 9533 ft | 295 kts | 61° |
| 2026-05-01 12:57 | 39.68320 | 3.04942 | 10245 ft | 300 kts | 60° |
| 2026-05-01 12:57 | 39.70366 | 3.09670 | 10750 ft | 325 kts | 61° |
| 2026-05-01 12:57 | 39.71485 | 3.12256 | 10869 ft | 331 kts | 61° |
| 2026-05-01 12:58 | 39.72619 | 3.14876 | 11061 ft | 334 kts | 61° |